Pays
Station

 

Conditions  météo  pour  Kalamata Airport  -  Grèce    Grèce

  
11 °C
    
 
 

METAR pour Kalamata Airport :

LGKL 221650Z 00000KT 8000 BKN030 BKN080 11/09 Q1016

 

Voici le bulletin pour Kalamata Airport - Grèce.
 
Le bulletin a été fait il y a 14 minutes, à 16:50 UTC .
Le vent était calme.
 
La température était de 11 °C, avec un point de rosée à 9 °C.
La pression atmosphérique était de 1016 hPa.
L'humidité relative était de 87.5%.
 
Il y avait 5 à 7/8ème de nébulosité à une hauteur de 914 mètres et 5 à 7/8ème de nébulosité à une hauteur de 2438 mètres.
 
La visibilité globale était de 8.0 kilomètres.
 

 
 
 

Pays :   A   B   C   D   E   F   G   H   I   J   K   L   M   N   O   P   Q   R   S   T   U   V   W   Y   Z

 

Partenaires :  Info Météo avec Met'info
Météo Marine avec MeteoMarine.net
Infos Site  |  Infos Légales  |  Crédits  |  Confidentialité
Contactez-nous  |  Ajouter aux favoris
© 2013-2019 METAR - Tous droits réservés